Time;durP1;ratioP1;P1;durP2;ratioP2;P2;SDS_P1;SDS_P2;PMS_P1;PMS_P2;Temp;Humidity;BMP_temperature;BMP_pressure;BME280_temperature;BME280_humidity;BME280_pressure;Samples;Min_cycle;Max_cycle;Signal;HPM_P1;HPM_P2
2021/05/26 00:01:13;;;;;;;3.80;1.17;;;8.80;99.90;;;;;;5090918;28;20024;-52
2021/05/26 00:03:39;;;;;;;1.23;0.70;;;8.80;99.90;;;;;;5090159;28;20378;-50
2021/05/26 00:06:04;;;;;;;1.15;0.90;;;8.90;99.90;;;;;;5090957;28;20031;-55
2021/05/26 00:08:33;;;;;;;0.82;0.82;;;8.90;99.90;;;;;;5089606;28;20069;-54
2021/05/26 00:11:00;;;;;;;1.00;0.70;;;9.00;99.90;;;;;;5090695;28;20528;-55
2021/05/26 00:13:26;;;;;;;2.05;0.80;;;9.00;99.90;;;;;;5091039;28;20039;-53
2021/05/26 00:15:53;;;;;;;1.25;0.75;;;9.00;99.90;;;;;;5090527;28;20052;-54
2021/05/26 00:18:19;;;;;;;2.22;0.85;;;9.10;99.90;;;;;;5090869;28;20071;-54
2021/05/26 00:20:46;;;;;;;1.08;0.98;;;9.10;99.90;;;;;;5090390;28;20063;-50
2021/05/26 00:23:11;;;;;;;2.97;0.85;;;9.10;99.90;;;;;;5089243;28;20024;-50
2021/05/26 00:25:37;;;;;;;5.28;0.95;;;9.10;99.90;;;;;;5089466;28;20065;-53
2021/05/26 00:28:03;;;;;;;2.10;0.80;;;9.20;99.90;;;;;;5090871;28;20044;-50
2021/05/26 00:30:31;;;;;;;1.70;0.57;;;9.20;99.90;;;;;;5090685;28;20474;-53
2021/05/26 00:32:57;;;;;;;0.82;0.73;;;9.20;99.90;;;;;;5090906;28;20060;-53
2021/05/26 00:35:23;;;;;;;0.88;0.80;;;9.20;99.90;;;;;;5090505;28;20095;-54
2021/05/26 00:37:49;;;;;;;1.55;0.80;;;9.20;99.90;;;;;;5088349;28;20186;-49
2021/05/26 00:40:16;;;;;;;0.80;0.80;;;9.20;99.90;;;;;;5089149;28;20103;-54
2021/05/26 00:42:42;;;;;;;0.90;0.90;;;9.20;99.90;;;;;;5090564;28;20020;-54
2021/05/26 00:45:08;;;;;;;0.70;0.50;;;9.20;99.90;;;;;;5090671;28;20415;-53
2021/05/26 00:47:48;;;;;;;1.70;0.60;;;9.30;99.90;;;;;;5088909;28;20030;-56
2021/05/26 00:50:23;;;;;;;2.13;0.70;;;9.30;99.90;;;;;;5105149;28;20032;-53
2021/05/26 00:52:50;;;;;;;1.17;0.65;;;9.30;99.90;;;;;;5114824;28;20034;-52
2021/05/26 00:55:18;;;;;;;2.85;0.90;;;9.30;99.90;;;;;;5113657;28;20312;-51
2021/05/26 00:57:46;;;;;;;1.20;0.80;;;9.30;99.90;;;;;;5114864;28;20035;-51
2021/05/26 01:00:13;;;;;;;1.33;0.70;;;9.20;99.90;;;;;;5114969;28;20400;-55
2021/05/26 01:02:39;;;;;;;1.15;0.77;;;9.20;99.90;;;;;;5114604;28;20019;-52
2021/05/26 01:05:07;;;;;;;2.85;0.60;;;9.20;99.90;;;;;;5115024;28;20107;-53
2021/05/26 01:07:33;;;;;;;1.08;0.60;;;9.20;99.90;;;;;;5114373;27;20482;-56
2021/05/26 01:10:00;;;;;;;0.73;0.50;;;9.30;99.90;;;;;;5113439;28;20119;-54
2021/05/26 01:12:25;;;;;;;1.05;0.80;;;9.30;99.90;;;;;;5114672;28;20020;-55
2021/05/26 01:14:51;;;;;;;1.10;0.80;;;9.30;99.90;;;;;;5114867;28;20036;-53
2021/05/26 01:17:16;;;;;;;0.75;0.75;;;9.30;99.90;;;;;;5102997;28;20065;-53
2021/05/26 01:19:42;;;;;;;2.50;0.88;;;9.30;99.90;;;;;;5095877;28;20067;-50
2021/05/26 01:22:08;;;;;;;1.33;0.88;;;9.30;99.90;;;;;;5095767;28;20028;-52
2021/05/26 01:24:34;;;;;;;3.88;1.60;;;9.30;99.90;;;;;;5094524;28;20363;-54
2021/05/26 01:27:00;;;;;;;1.77;0.80;;;9.40;99.90;;;;;;5095484;28;20502;-54
2021/05/26 01:29:25;;;;;;;1.48;0.77;;;9.30;99.90;;;;;;5095800;28;20107;-56
2021/05/26 01:31:51;;;;;;;3.97;1.40;;;9.40;99.90;;;;;;5095519;28;20057;-51
2021/05/26 01:34:16;;;;;;;5.55;1.23;;;9.30;99.90;;;;;;5095838;28;20467;-56
2021/05/26 01:36:42;;;;;;;1.02;0.90;;;9.30;99.90;;;;;;5079128;28;20166;-55
2021/05/26 01:39:08;;;;;;;3.42;0.90;;;9.30;99.90;;;;;;5073854;28;20535;-54
2021/05/26 01:41:33;;;;;;;1.23;1.13;;;9.30;99.90;;;;;;5075091;28;20029;-55
2021/05/26 01:43:59;;;;;;;1.88;0.90;;;9.30;99.90;;;;;;5075277;28;20505;-53
2021/05/26 01:46:25;;;;;;;1.48;1.05;;;9.30;99.90;;;;;;5071639;28;20025;-54
2021/05/26 01:48:51;;;;;;;2.53;1.42;;;9.30;99.90;;;;;;5075028;28;20023;-49
2021/05/26 01:51:17;;;;;;;1.23;0.68;;;9.20;99.90;;;;;;5075268;28;20352;-53
2021/05/26 01:53:43;;;;;;;1.52;0.55;;;9.20;99.90;;;;;;5073624;28;20115;-52
2021/05/26 01:56:22;;;;;;;1.45;0.80;;;9.20;99.90;;;;;;5075120;28;20023;-54
2021/05/26 01:58:52;;;;;;;1.48;0.90;;;9.10;99.90;;;;;;5073499;28;20024;-53
2021/05/26 02:01:19;;;;;;;3.13;0.77;;;9.10;99.90;;;;;;5073655;28;20063;-54
2021/05/26 02:03:45;;;;;;;1.83;0.95;;;9.10;99.90;;;;;;5074767;28;20020;-50
2021/05/26 02:06:12;;;;;;;1.08;0.80;;;9.00;99.90;;;;;;5074593;28;20070;-50
2021/05/26 02:08:38;;;;;;;2.80;1.10;;;9.00;99.90;;;;;;5073568;28;20021;-52
2021/05/26 02:13:48;;;;;;;4.10;1.17;;;8.90;99.90;;;;;;5075141;28;20031;-52
2021/05/26 02:16:14;;;;;;;0.98;0.60;;;8.90;99.90;;;;;;5074857;28;20040;-51
2021/05/26 02:18:40;;;;;;;3.35;1.10;;;8.90;99.90;;;;;;5074748;28;20532;-52
2021/05/26 02:21:05;;;;;;;1.15;1.00;;;8.90;99.90;;;;;;5074799;28;20028;-49
2021/05/26 02:23:31;;;;;;;1.90;0.88;;;8.90;99.90;;;;;;5073447;28;20391;-52
2021/05/26 02:25:57;;;;;;;2.25;0.82;;;8.90;99.90;;;;;;5074386;28;20401;-52
2021/05/26 02:28:22;;;;;;;2.63;0.70;;;9.00;99.90;;;;;;5074439;28;20051;-53
2021/05/26 02:30:48;;;;;;;1.88;1.17;;;8.90;99.90;;;;;;5074593;28;20032;-52
2021/05/26 02:33:13;;;;;;;0.98;0.77;;;8.90;99.90;;;;;;5074513;28;20055;-51
2021/05/26 02:35:39;;;;;;;3.00;1.00;;;8.90;99.90;;;;;;5080677;28;20503;-53
2021/05/26 02:38:04;;;;;;;1.20;0.95;;;9.00;99.90;;;;;;5093352;28;20020;-54
2021/05/26 02:40:33;;;;;;;1.30;0.80;;;9.00;99.90;;;;;;5093111;28;20024;-52
2021/05/26 02:42:59;;;;;;;1.80;1.00;;;9.00;99.90;;;;;;5094476;28;20020;-53
2021/05/26 02:45:25;;;;;;;2.13;1.20;;;9.00;99.90;;;;;;5094633;28;20024;-55
2021/05/26 02:47:50;;;;;;;1.08;0.95;;;9.10;99.90;;;;;;5094382;28;20024;-53
2021/05/26 02:50:17;;;;;;;2.53;0.80;;;9.10;99.90;;;;;;5094557;28;20034;-56
2021/05/26 02:52:44;;;;;;;2.45;0.95;;;9.10;99.90;;;;;;5094306;28;20054;-56
2021/05/26 02:55:11;;;;;;;1.08;0.80;;;9.10;99.90;;;;;;5092844;28;20032;-53
2021/05/26 02:57:36;;;;;;;1.05;0.95;;;9.10;99.90;;;;;;5094233;28;20199;-54
2021/05/26 03:00:04;;;;;;;1.77;1.00;;;9.10;99.90;;;;;;5094335;28;20343;-53
2021/05/26 03:02:30;;;;;;;2.85;0.80;;;9.20;99.90;;;;;;5092933;28;20028;-56
2021/05/26 03:04:55;;;;;;;3.00;0.90;;;9.20;99.90;;;;;;5094180;28;20386;-54
2021/05/26 03:07:21;;;;;;;4.13;1.08;;;9.20;99.90;;;;;;5094194;28;20095;-55
2021/05/26 03:09:46;;;;;;;0.88;0.70;;;9.20;99.90;;;;;;5092518;28;20032;-54
2021/05/26 03:12:12;;;;;;;1.40;0.88;;;9.20;99.90;;;;;;5093659;28;20024;-58
2021/05/26 03:14:37;;;;;;;0.93;0.70;;;9.20;99.90;;;;;;5093962;28;20028;-54
2021/05/26 03:17:03;;;;;;;1.42;0.80;;;9.20;99.90;;;;;;5093852;28;20039;-54
2021/05/26 03:19:29;;;;;;;1.10;0.85;;;9.20;99.90;;;;;;5093719;28;20031;-51
2021/05/26 03:21:54;;;;;;;1.80;1.40;;;9.30;99.90;;;;;;5093806;28;20052;-55
2021/05/26 03:24:20;;;;;;;2.25;1.23;;;9.30;99.90;;;;;;5092437;28;20028;-53
2021/05/26 03:26:45;;;;;;;2.30;1.10;;;9.30;99.90;;;;;;5092211;28;20036;-53
2021/05/26 03:29:12;;;;;;;2.95;0.90;;;9.20;99.90;;;;;;5092331;28;20382;-53
2021/05/26 03:31:37;;;;;;;1.75;1.30;;;9.20;99.90;;;;;;5093746;28;20028;-52
2021/05/26 03:34:04;;;;;;;4.38;1.00;;;9.20;99.90;;;;;;5093564;28;20540;-51
2021/05/26 03:36:30;;;;;;;2.65;1.48;;;9.30;99.90;;;;;;5093515;28;20054;-55
2021/05/26 03:38:55;;;;;;;3.53;1.50;;;9.30;99.90;;;;;;5092027;28;20024;-55
2021/05/26 03:41:21;;;;;;;2.83;1.33;;;9.40;99.90;;;;;;5092176;28;20370;-54
2021/05/26 03:43:46;;;;;;;2.97;1.15;;;9.50;99.90;;;;;;5093384;28;20459;-53
2021/05/26 03:46:12;;;;;;;1.95;1.00;;;9.50;99.90;;;;;;5093345;28;20058;-56
2021/05/26 03:48:37;;;;;;;3.53;1.10;;;9.50;99.90;;;;;;5093341;28;20020;-50
2021/05/26 03:51:03;;;;;;;2.05;1.13;;;9.50;99.90;;;;;;5093366;28;20050;-56
2021/05/26 03:53:29;;;;;;;1.27;0.85;;;9.60;99.90;;;;;;5091870;28;20059;-54
2021/05/26 03:55:54;;;;;;;2.08;1.10;;;9.60;99.90;;;;;;5093217;28;20094;-53
2021/05/26 03:58:20;;;;;;;1.65;1.30;;;9.60;99.90;;;;;;5092742;28;20055;-53
2021/05/26 04:00:45;;;;;;;2.15;1.08;;;9.70;99.90;;;;;;5093187;28;20031;-53
2021/05/26 04:03:11;;;;;;;1.88;1.02;;;9.70;99.90;;;;;;5070581;28;20179;-53
2021/05/26 04:05:36;;;;;;;2.72;1.17;;;9.70;99.90;;;;;;5072511;28;20154;-52
2021/05/26 04:08:02;;;;;;;3.00;1.40;;;9.80;99.90;;;;;;5072203;28;20379;-53
2021/05/26 04:10:27;;;;;;;1.73;0.82;;;9.80;99.90;;;;;;5070125;28;20455;-53
2021/05/26 04:12:53;;;;;;;3.22;1.00;;;9.90;99.90;;;;;;5072208;28;20020;-52
2021/05/26 04:15:18;;;;;;;1.95;1.05;;;9.90;99.90;;;;;;5072482;28;20491;-53
2021/05/26 04:17:44;;;;;;;1.63;0.85;;;9.90;99.90;;;;;;5071307;28;20021;-54
2021/05/26 04:20:10;;;;;;;2.28;1.00;;;10.00;99.90;;;;;;5072339;28;20082;-54
2021/05/26 04:22:37;;;;;;;1.98;0.80;;;10.00;99.90;;;;;;5072204;28;20021;-56
2021/05/26 04:25:05;;;;;;;1.67;0.80;;;10.10;99.90;;;;;;5070143;28;20016;-54
2021/05/26 04:27:30;;;;;;;1.75;0.90;;;10.10;99.90;;;;;;5072166;28;20033;-53
2021/05/26 04:29:56;;;;;;;1.13;1.05;;;10.30;99.90;;;;;;5072379;28;20032;-52
2021/05/26 04:32:21;;;;;;;2.30;1.30;;;10.50;99.90;;;;;;5072427;28;20020;-56
2021/05/26 04:34:47;;;;;;;2.20;1.20;;;11.00;99.90;;;;;;5072659;28;20068;-56
2021/05/26 04:37:13;;;;;;;3.60;0.85;;;11.40;99.90;;;;;;5092623;28;20093;-56
2021/05/26 04:39:38;;;;;;;1.95;0.88;;;11.50;99.90;;;;;;5090016;28;20486;-52
2021/05/26 04:42:04;;;;;;;2.53;1.05;;;11.60;99.90;;;;;;5092676;28;20016;-55
2021/05/26 04:44:30;;;;;;;2.08;1.38;;;11.70;99.90;;;;;;5092491;28;20020;-53
2021/05/26 04:46:55;;;;;;;0.80;0.70;;;11.90;99.90;;;;;;5092549;28;20115;-56
2021/05/26 04:49:21;;;;;;;1.65;1.00;;;12.00;99.90;;;;;;5085285;28;20012;-55
2021/05/26 04:51:47;;;;;;;3.53;1.27;;;12.00;99.90;;;;;;5092347;28;20065;-52
2021/05/26 04:54:12;;;;;;;1.77;0.98;;;11.90;99.90;;;;;;5090856;28;20028;-52
2021/05/26 04:56:38;;;;;;;1.10;1.00;;;11.90;99.90;;;;;;5092564;28;20028;-53
2021/05/26 04:59:03;;;;;;;2.20;0.73;;;11.80;99.90;;;;;;5092273;28;20370;-56
2021/05/26 05:01:29;;;;;;;2.92;0.88;;;11.80;99.90;;;;;;5091268;28;20045;-52
2021/05/26 05:03:54;;;;;;;2.65;0.93;;;11.90;99.90;;;;;;5092613;28;20438;-53
2021/05/26 05:06:23;;;;;;;2.80;0.80;;;12.00;99.90;;;;;;5092463;28;20510;-55
2021/05/26 05:08:48;;;;;;;1.55;1.20;;;12.10;99.90;;;;;;5087321;28;20020;-49
2021/05/26 05:11:14;;;;;;;2.47;1.60;;;12.20;99.90;;;;;;5070766;28;20028;-56
2021/05/26 05:13:39;;;;;;;4.03;1.05;;;12.20;99.90;;;;;;5071926;28;20123;-57
2021/05/26 05:16:05;;;;;;;3.33;1.35;;;12.70;99.90;;;;;;5071681;28;20028;-52
2021/05/26 05:18:30;;;;;;;5.20;0.90;;;14.20;97.90;;;;;;5072148;28;20037;-57
2021/05/26 05:20:56;;;;;;;1.55;0.70;;;15.40;93.40;;;;;;5069606;28;20070;-53
2021/05/26 05:23:21;;;;;;;5.75;1.25;;;15.70;91.30;;;;;;5070860;28;20024;-51
2021/05/26 05:25:48;;;;;;;4.50;1.20;;;15.30;87.90;;;;;;5071960;28;20029;-55
2021/05/26 05:28:13;;;;;;;2.08;1.10;;;14.80;89.40;;;;;;5071768;28;20487;-54
2021/05/26 05:30:39;;;;;;;2.88;0.90;;;14.90;89.40;;;;;;5073093;28;20029;-56
2021/05/26 05:33:04;;;;;;;1.55;1.05;;;15.30;89.10;;;;;;5092210;28;20057;-55
2021/05/26 05:35:30;;;;;;;3.05;1.17;;;15.40;86.00;;;;;;5087618;28;20490;-52
2021/05/26 05:37:57;;;;;;;2.95;0.85;;;15.30;84.80;;;;;;5075376;28;20111;-53
2021/05/26 05:40:23;;;;;;;1.80;0.90;;;15.10;85.80;;;;;;5073808;28;20024;-56
2021/05/26 05:42:48;;;;;;;2.22;0.93;;;14.90;85.00;;;;;;5075558;28;20528;-52
2021/05/26 05:45:14;;;;;;;2.00;1.30;;;14.50;86.30;;;;;;5075177;28;20046;-52
2021/05/26 05:47:39;;;;;;;6.47;0.90;;;14.10;87.40;;;;;;5075701;28;20029;-53
2021/05/26 05:50:14;;;;;;;1.95;0.90;;;13.90;89.20;;;;;;5075117;28;20025;-56
2021/05/26 05:52:39;;;;;;;2.70;1.30;;;13.70;89.80;;;;;;5074049;28;20029;-55
2021/05/26 05:55:05;;;;;;;3.00;1.00;;;13.50;90.30;;;;;;5073812;28;20071;-56
2021/05/26 05:57:31;;;;;;;1.60;1.20;;;13.40;90.50;;;;;;5075344;28;20048;-54
2021/05/26 05:59:56;;;;;;;2.80;1.10;;;13.20;90.50;;;;;;5074902;28;20054;-50
2021/05/26 06:02:22;;;;;;;1.15;0.70;;;13.30;91.10;;;;;;5074900;28;20024;-55
2021/05/26 06:04:47;;;;;;;1.33;0.80;;;13.50;91.10;;;;;;5075147;28;20551;-56
2021/05/26 06:07:13;;;;;;;2.35;1.20;;;13.60;90.90;;;;;;5074712;28;20085;-52
2021/05/26 06:09:38;;;;;;;1.00;0.90;;;13.80;90.10;;;;;;5073691;28;20021;-56
2021/05/26 06:12:04;;;;;;;2.65;1.02;;;13.90;90.30;;;;;;5074634;28;20024;-51
2021/05/26 06:14:30;;;;;;;4.78;1.35;;;13.90;90.20;;;;;;5074760;28;20468;-55
2021/05/26 06:16:55;;;;;;;1.13;0.80;;;13.70;89.90;;;;;;5074734;28;20077;-55
2021/05/26 06:19:21;;;;;;;1.38;1.00;;;13.60;90.20;;;;;;5074779;28;20355;-53
2021/05/26 06:21:46;;;;;;;1.83;1.10;;;13.60;90.40;;;;;;5074284;28;20111;-54
2021/05/26 06:24:12;;;;;;;2.65;1.50;;;13.80;89.90;;;;;;5073512;28;20025;-56
2021/05/26 06:26:37;;;;;;;3.85;1.38;;;14.20;88.70;;;;;;5074328;28;20039;-56
2021/05/26 06:29:05;;;;;;;1.42;0.80;;;14.70;86.60;;;;;;5074728;28;20025;-54
2021/05/26 06:31:31;;;;;;;2.70;1.10;;;15.30;84.30;;;;;;5074231;28;20099;-55
2021/05/26 06:33:57;;;;;;;1.63;1.20;;;15.50;83.60;;;;;;5074666;28;20035;-55
2021/05/26 06:36:23;;;;;;;4.43;1.40;;;15.30;82.50;;;;;;5087572;28;20028;-52
2021/05/26 06:38:49;;;;;;;1.88;0.90;;;15.20;81.70;;;;;;5093473;28;20055;-55
2021/05/26 06:41:14;;;;;;;3.03;1.45;;;15.10;82.40;;;;;;5094249;28;20470;-56
2021/05/26 06:43:40;;;;;;;3.05;1.17;;;14.90;81.70;;;;;;5094667;28;20028;-55
2021/05/26 06:46:06;;;;;;;2.38;1.00;;;15.40;80.80;;;;;;5093894;28;20031;-52
2021/05/26 06:48:31;;;;;;;2.85;1.25;;;16.30;77.60;;;;;;5094131;28;20485;-56
2021/05/26 06:50:57;;;;;;;2.05;1.13;;;16.30;75.60;;;;;;5093978;28;20073;-56
2021/05/26 06:53:25;;;;;;;1.80;0.90;;;16.10;77.50;;;;;;5093082;28;20028;-56
2021/05/26 06:55:51;;;;;;;1.90;1.02;;;15.80;78.90;;;;;;5094288;28;20470;-55
2021/05/26 06:58:16;;;;;;;1.75;0.70;;;15.60;79.40;;;;;;5094323;28;20039;-54
2021/05/26 07:00:42;;;;;;;2.15;1.00;;;15.50;80.50;;;;;;5093729;28;20024;-56
2021/05/26 07:03:09;;;;;;;4.03;1.20;;;15.30;79.60;;;;;;5094235;28;20028;-55
2021/05/26 07:05:35;;;;;;;1.20;0.85;;;15.20;80.00;;;;;;5094033;28;20048;-56
2021/05/26 07:08:00;;;;;;;3.10;1.55;;;15.10;80.40;;;;;;5094020;28;20500;-54
2021/05/26 07:10:26;;;;;;;1.55;1.15;;;15.10;79.60;;;;;;5092590;28;20028;-52
2021/05/26 07:12:51;;;;;;;3.10;1.10;;;15.30;79.30;;;;;;5093933;28;20019;-56
2021/05/26 07:15:18;;;;;;;1.42;0.73;;;16.10;78.50;;;;;;5093954;28;20098;-54
2021/05/26 07:17:44;;;;;;;1.85;1.10;;;17.00;73.90;;;;;;5093684;28;20032;-53
2021/05/26 07:20:11;;;;;;;1.77;1.02;;;17.40;73.90;;;;;;5093457;28;20042;-56
2021/05/26 07:22:36;;;;;;;1.17;0.65;;;17.80;72.90;;;;;;5093867;28;20054;-54
2021/05/26 07:25:02;;;;;;;0.90;0.73;;;18.30;72.40;;;;;;5092500;28;20028;-54
2021/05/26 07:27:28;;;;;;;4.00;0.70;;;19.00;70.60;;;;;;5093399;28;20049;-52
2021/05/26 07:29:53;;;;;;;3.53;0.77;;;19.40;69.90;;;;;;5093824;28;20528;-55
2021/05/26 07:32:19;;;;;;;2.78;0.98;;;19.30;69.80;;;;;;5093252;28;20063;-55
2021/05/26 07:34:45;;;;;;;1.75;0.80;;;18.80;69.30;;;;;;5093440;28;20442;-54
2021/05/26 07:37:10;;;;;;;4.13;1.00;;;19.70;68.00;;;;;;5073140;28;20518;-54
2021/05/26 07:39:36;;;;;;;2.85;1.00;;;19.60;65.60;;;;;;5070632;28;20028;-55
2021/05/26 07:42:07;;;;;;;1.95;1.02;;;20.20;65.60;;;;;;5072923;28;20023;-53
2021/05/26 07:44:34;;;;;;;1.58;0.70;;;20.70;64.90;;;;;;5073226;28;20043;-52
2021/05/26 07:47:00;;;;;;;2.55;1.10;;;20.20;62.80;;;;;;5072862;28;20051;-53
2021/05/26 07:49:26;;;;;;;1.95;0.90;;;19.70;64.40;;;;;;5072894;28;20036;-54
2021/05/26 07:51:54;;;;;;;4.00;0.90;;;19.30;64.80;;;;;;5072906;28;20032;-56
2021/05/26 07:54:22;;;;;;;1.67;0.63;;;19.60;63.90;;;;;;5071738;28;20028;-54
2021/05/26 07:56:48;;;;;;;2.15;0.70;;;20.30;63.00;;;;;;5072878;28;20444;-57
2021/05/26 07:59:13;;;;;;;0.98;0.80;;;21.90;61.20;;;;;;5072916;28;20024;-57
2021/05/26 08:01:39;;;;;;;2.28;0.80;;;23.80;57.30;;;;;;5072466;28;20036;-54
2021/05/26 08:04:04;;;;;;;1.40;1.00;;;23.80;57.00;;;;;;5072818;28;20037;-57
2021/05/26 08:06:30;;;;;;;2.08;1.08;;;23.00;55.90;;;;;;5072803;28;20171;-55
2021/05/26 08:08:56;;;;;;;1.20;0.80;;;21.90;54.90;;;;;;5071587;28;20034;-55
2021/05/26 08:11:21;;;;;;;5.55;1.00;;;21.60;55.60;;;;;;5072612;28;20036;-54
2021/05/26 08:13:47;;;;;;;2.35;0.60;;;21.60;56.10;;;;;;5072760;28;20028;-54
2021/05/26 08:16:12;;;;;;;5.00;1.00;;;22.00;56.10;;;;;;5072741;28;20058;-54
2021/05/26 08:18:38;;;;;;;2.05;0.70;;;23.40;53.90;;;;;;5072291;28;20082;-56
2021/05/26 08:21:04;;;;;;;1.80;0.93;;;25.30;52.70;;;;;;5072526;28;20063;-57
2021/05/26 08:23:29;;;;;;;9.60;1.00;;;27.60;51.00;;;;;;5071269;28;20029;-55
2021/05/26 08:25:54;;;;;;;3.75;0.90;;;27.70;48.10;;;;;;5072044;28;20035;-58
2021/05/26 08:28:20;;;;;;;1.38;0.73;;;26.30;49.50;;;;;;5071983;28;20040;-57
2021/05/26 08:30:46;;;;;;;1.92;1.00;;;26.50;50.20;;;;;;5072541;28;20356;-56
2021/05/26 08:33:12;;;;;;;1.60;0.70;;;25.90;49.20;;;;;;5071979;28;20025;-51
2021/05/26 08:35:37;;;;;;;3.83;0.60;;;25.30;49.80;;;;;;5079464;28;20028;-54
2021/05/26 08:38:03;;;;;;;3.20;0.90;;;24.80;51.00;;;;;;5091613;28;20478;-54
2021/05/26 08:40:30;;;;;;;2.58;0.55;;;24.90;51.70;;;;;;5092239;28;20039;-57
2021/05/26 08:42:57;;;;;;;1.23;0.68;;;25.10;50.70;;;;;;5092451;28;20058;-56
2021/05/26 08:45:22;;;;;;;2.03;0.80;;;25.00;51.10;;;;;;5091071;28;20038;-53
2021/05/26 08:47:52;;;;;;;1.92;0.73;;;25.00;50.50;;;;;;5092100;28;20103;-56
2021/05/26 08:50:18;;;;;;;5.85;1.35;;;24.30;48.60;;;;;;5092345;28;20027;-55
2021/05/26 08:52:45;;;;;;;2.38;0.70;;;23.70;49.70;;;;;;5092326;28;20107;-55
2021/05/26 08:55:12;;;;;;;2.45;0.60;;;23.10;50.80;;;;;;5090775;28;20097;-58
2021/05/26 08:57:38;;;;;;;1.13;0.65;;;22.50;51.30;;;;;;5092197;28;20051;-55
2021/05/26 09:00:05;;;;;;;1.75;0.60;;;22.20;52.10;;;;;;5092285;28;20111;-55
2021/05/26 09:02:30;;;;;;;3.03;0.70;;;21.90;52.40;;;;;;5092006;28;20031;-55
2021/05/26 09:04:56;;;;;;;1.52;0.90;;;21.60;52.70;;;;;;5092234;28;20028;-54
2021/05/26 09:07:23;;;;;;;1.60;0.80;;;21.50;52.00;;;;;;5092163;28;20435;-54
2021/05/26 09:09:58;;;;;;;1.90;0.93;;;21.40;52.40;;;;;;5091621;28;20387;-56
2021/05/26 09:12:25;;;;;;;1.63;0.82;;;21.50;50.40;;;;;;5096154;28;20016;-55
2021/05/26 09:14:51;;;;;;;1.98;0.70;;;21.40;51.90;;;;;;5095924;28;20020;-57
2021/05/26 09:17:17;;;;;;;2.15;0.90;;;21.50;52.10;;;;;;5095998;28;20023;-55
2021/05/26 09:19:42;;;;;;;5.80;1.25;;;22.70;50.80;;;;;;5095724;28;20510;-58
2021/05/26 09:22:12;;;;;;;2.25;0.93;;;24.10;47.00;;;;;;5096125;28;20474;-52
2021/05/26 09:24:38;;;;;;;2.92;1.10;;;25.30;46.50;;;;;;5094608;28;20099;-54
2021/05/26 09:27:09;;;;;;;2.33;1.02;;;25.70;44.70;;;;;;5095805;28;20072;-58
2021/05/26 09:29:43;;;;;;;1.83;0.70;;;26.10;43.60;;;;;;5095548;28;20024;-56
2021/05/26 09:32:20;;;;;;;2.72;0.90;;;26.30;43.40;;;;;;5095914;28;20020;-56
2021/05/26 09:34:51;;;;;;;0.93;0.60;;;26.70;42.50;;;;;;5095705;28;20024;-54
2021/05/26 09:37:20;;;;;;;0.98;0.60;;;27.50;43.60;;;;;;5074179;28;20454;-57
2021/05/26 09:39:55;;;;;;;1.88;0.70;;;26.50;44.10;;;;;;5073738;28;20103;-57
2021/05/26 09:42:41;;;;;;;3.67;1.08;;;25.40;42.80;;;;;;5075384;28;20031;-57
2021/05/26 09:45:16;;;;;;;2.97;1.10;;;25.20;42.10;;;;;;5075243;28;20478;-57
2021/05/26 09:47:47;;;;;;;2.75;0.90;;;24.30;43.20;;;;;;5074839;28;20027;-58
2021/05/26 09:50:21;;;;;;;1.45;0.70;;;23.40;45.30;;;;;;5074796;28;20029;-56
2021/05/26 09:52:58;;;;;;;1.27;0.90;;;22.90;46.60;;;;;;5075252;28;20024;-51
2021/05/26 09:55:35;;;;;;;5.28;1.00;;;22.40;46.80;;;;;;5074096;28;20035;-54
2021/05/26 09:58:01;;;;;;;2.00;0.73;;;21.90;48.00;;;;;;5077345;28;20024;-58
2021/05/26 10:00:27;;;;;;;1.85;0.73;;;21.50;48.80;;;;;;5082261;28;20031;-54
2021/05/26 10:02:55;;;;;;;4.55;0.70;;;20.90;49.20;;;;;;5094630;28;20505;-56
2021/05/26 10:05:21;;;;;;;3.70;1.38;;;20.70;49.80;;;;;;5094883;28;20569;-55
2021/05/26 10:07:57;;;;;;;2.35;1.10;;;20.40;50.40;;;;;;5094711;28;20107;-57
2021/05/26 10:10:23;;;;;;;;;;;20.30;51.50;;;;;;5092648;28;20024;-57
2021/05/26 10:12:55;;;;;;;9.93;1.30;;;20.30;51.30;;;;;;5094876;28;19908;-54
2021/05/26 10:15:24;;;;;;;3.67;0.73;;;20.20;50.80;;;;;;5090685;28;20016;-54
2021/05/26 10:17:52;;;;;;;1.85;0.90;;;20.00;51.30;;;;;;5074658;28;20021;-56
2021/05/26 10:20:30;;;;;;;3.40;0.90;;;20.00;51.40;;;;;;5074497;28;20459;-56
2021/05/26 10:22:57;;;;;;;1.17;0.82;;;19.90;51.30;;;;;;5073619;28;20024;-57
2021/05/26 10:25:24;;;;;;;5.63;1.08;;;19.80;51.20;;;;;;5078963;28;20044;-56
2021/05/26 10:27:52;;;;;;;3.78;1.17;;;19.50;52.70;;;;;;5074898;28;20056;-55
2021/05/26 10:30:19;;;;;;;3.35;1.00;;;19.20;52.80;;;;;;5074661;28;20033;-55
2021/05/26 10:32:59;;;;;;;2.50;0.82;;;18.70;53.50;;;;;;5074387;28;20032;-53
2021/05/26 10:35:29;;;;;;;2.30;0.90;;;18.40;54.30;;;;;;5079500;28;20539;-55
2021/05/26 10:38:02;;;;;;;2.38;0.85;;;18.10;54.60;;;;;;5094557;28;20045;-56
2021/05/26 10:40:32;;;;;;;2.55;1.30;;;17.80;55.50;;;;;;5094136;28;20024;-56
2021/05/26 10:43:12;;;;;;;2.53;0.90;;;17.60;56.10;;;;;;5094606;28;20027;-53
2021/05/26 10:45:38;;;;;;;1.92;0.82;;;17.60;56.20;;;;;;5088831;28;20025;-56
2021/05/26 10:48:04;;;;;;;2.63;0.73;;;17.90;56.00;;;;;;5071449;28;20410;-59
2021/05/26 10:50:48;;;;;;;1.58;0.80;;;18.20;55.10;;;;;;5073824;28;20540;-58
2021/05/26 10:53:18;;;;;;;1.95;0.57;;;18.80;56.00;;;;;;5072743;28;20468;-59
2021/05/26 10:55:49;;;;;;;3.17;0.85;;;19.50;54.60;;;;;;5073768;28;20021;-59
2021/05/26 10:58:25;;;;;;;1.50;0.88;;;19.80;54.30;;;;;;5074205;28;20039;-59
2021/05/26 11:00:56;;;;;;;;;;;19.90;53.80;;;;;;5074156;28;20491;-58
2021/05/26 11:03:28;;;;;;;1.85;0.75;;;20.00;54.40;;;;;;5073740;28;19905;-58
2021/05/26 11:06:13;;;;;;;1.05;0.70;;;19.80;54.10;;;;;;5073454;28;20025;-58
2021/05/26 11:08:42;;;;;;;0.60;0.60;;;19.80;54.40;;;;;;5072174;28;20021;-58
2021/05/26 11:11:23;;;;;;;1.60;0.95;;;19.80;54.60;;;;;;5073764;28;20531;-59
2021/05/26 11:14:02;;;;;;;2.13;0.70;;;19.80;55.00;;;;;;5073519;28;20382;-59
2021/05/26 11:16:45;;;;;;;2.78;1.23;;;19.90;55.90;;;;;;5073549;28;20027;-58
2021/05/26 11:19:13;;;;;;;3.35;1.00;;;20.00;55.00;;;;;;5073325;28;20039;-56
2021/05/26 11:21:41;;;;;;;5.30;1.55;;;19.90;54.80;;;;;;5073137;28;20070;-58
2021/05/26 11:24:07;;;;;;;2.08;0.90;;;19.50;54.70;;;;;;5071726;28;20035;-57
2021/05/26 11:26:35;;;;;;;4.00;0.80;;;19.30;55.30;;;;;;5073025;28;20032;-57
2021/05/26 11:29:00;;;;;;;1.88;1.08;;;19.00;55.90;;;;;;5073251;28;20024;-57
2021/05/26 11:31:26;;;;;;;2.13;0.80;;;18.80;56.60;;;;;;5071896;28;20029;-56
2021/05/26 11:33:55;;;;;;;2.22;1.08;;;19.00;56.80;;;;;;5071708;28;20020;-58
2021/05/26 11:36:43;;;;;;;3.35;0.88;;;19.10;56.90;;;;;;5086341;28;20020;-57
2021/05/26 11:39:16;;;;;;;2.58;0.82;;;19.00;56.30;;;;;;5090804;28;20471;-53
2021/05/26 11:41:41;;;;;;;2.28;0.90;;;18.80;56.40;;;;;;5093140;28;20020;-53
2021/05/26 11:44:08;;;;;;;1.95;0.90;;;18.60;56.40;;;;;;5092264;28;20474;-57
2021/05/26 11:46:33;;;;;;;1.80;0.60;;;18.30;56.90;;;;;;5092086;28;20031;-53
2021/05/26 11:48:59;;;;;;;1.33;0.65;;;18.20;57.40;;;;;;5093001;28;20028;-55
2021/05/26 11:51:25;;;;;;;2.58;0.93;;;18.10;57.60;;;;;;5092903;28;20107;-57
2021/05/26 11:53:57;;;;;;;1.63;0.73;;;17.90;57.80;;;;;;5091581;28;20062;-58
2021/05/26 11:56:23;;;;;;;3.05;0.70;;;17.70;58.80;;;;;;5093258;28;20024;-56
2021/05/26 11:58:49;;;;;;;2.13;0.80;;;17.50;59.00;;;;;;5092388;28;20036;-54
2021/05/26 12:01:16;;;;;;;0.95;0.80;;;17.30;59.50;;;;;;5092573;28;20020;-57
2021/05/26 12:03:41;;;;;;;2.55;0.60;;;17.10;60.50;;;;;;5092784;28;20494;-57
2021/05/26 12:06:08;;;;;;;2.65;0.70;;;16.80;64.80;;;;;;5092862;28;20111;-53
2021/05/26 12:08:43;;;;;;;0.70;0.70;;;16.40;67.00;;;;;;5091928;28;20028;-52
2021/05/26 12:11:11;;;;;;;1.23;0.45;;;16.10;70.40;;;;;;5092817;28;20513;-57
2021/05/26 12:13:44;;;;;;;2.10;0.50;;;15.70;71.40;;;;;;5091363;28;20040;-56
2021/05/26 12:16:12;;;;;;;0.43;0.25;;;15.70;73.50;;;;;;5092646;28;20024;-57
2021/05/26 12:18:39;;;;;;;0.60;0.40;;;15.90;72.20;;;;;;5092589;28;20035;-57
2021/05/26 12:21:06;;;;;;;2.28;0.95;;;16.30;72.80;;;;;;5091108;28;20399;-55
2021/05/26 12:23:40;;;;;;;2.03;0.50;;;16.60;72.30;;;;;;5083278;28;20032;-54
2021/05/26 12:26:24;;;;;;;1.20;0.80;;;17.00;71.40;;;;;;5072487;28;20059;-55
2021/05/26 12:28:51;;;;;;;1.40;0.38;;;17.40;73.90;;;;;;5090620;28;20077;-57
2021/05/26 12:31:18;;;;;;;0.70;0.70;;;17.50;72.20;;;;;;5092654;28;20056;-57
2021/05/26 12:33:48;;;;;;;2.25;0.35;;;17.80;71.60;;;;;;5077128;28;20067;-57
2021/05/26 12:36:14;;;;;;;0.30;0.30;;;18.00;70.90;;;;;;5084534;28;20028;-58
2021/05/26 12:38:44;;;;;;;2.95;0.80;;;18.30;69.90;;;;;;5091603;28;20095;-57
2021/05/26 12:41:31;;;;;;;0.88;0.32;;;18.10;69.10;;;;;;5092376;28;20032;-58
2021/05/26 12:44:07;;;;;;;0.40;0.40;;;17.90;70.40;;;;;;5092444;28;20024;-57
2021/05/26 12:46:37;;;;;;;3.03;0.63;;;17.60;69.70;;;;;;5082131;28;20025;-57
2021/05/26 12:49:06;;;;;;;3.00;0.47;;;17.50;69.70;;;;;;5076096;28;20043;-53
2021/05/26 12:51:44;;;;;;;1.70;0.50;;;17.50;69.50;;;;;;5076233;28;20024;-52
2021/05/26 12:54:10;;;;;;;1.35;0.57;;;17.60;67.70;;;;;;5074817;28;20024;-55